Time;durP1;ratioP1;P1;durP2;ratioP2;P2;SDS_P1;SDS_P2;PMS_P1;PMS_P2;Temp;Humidity;BMP_temperature;BMP_pressure;BME280_temperature;BME280_humidity;BME280_pressure;Samples;Min_cycle;Max_cycle;Signal;HPM_P1;HPM_P2
2022/01/31 00:00:30;;;;;;;10.43;3.47;;;;;;;14.04;43.54;101487.34;5069316;28;20476;-68
2022/01/31 00:02:55;;;;;;;22.00;3.80;;;;;;;14.91;43.05;101472.84;5052579;28;20037;-68
2022/01/31 00:05:21;;;;;;;11.43;3.90;;;;;;;14.30;43.71;101458.91;5052253;28;20055;-68
2022/01/31 00:07:46;;;;;;;13.53;4.80;;;;;;;14.63;43.75;101448.78;5065727;28;20525;-68
2022/01/31 00:10:13;;;;;;;17.17;4.47;;;;;;;14.84;43.29;101439.66;5047891;28;20029;-68
2022/01/31 00:13:33;;;;;;;9.77;4.13;;;;;;;14.45;43.78;101426.25;5050076;28;20445;-68
2022/01/31 00:15:30;;;;;;;13.87;4.80;;;;;;;14.50;44.15;101398.13;5057663;28;20028;-68
2022/01/31 00:17:55;;;;;;;12.43;3.80;;;;;;;14.49;44.91;101394.59;5053074;28;20071;-68
2022/01/31 00:20:21;;;;;;;12.00;4.50;;;;;;;14.37;44.88;101403.59;5060092;28;20046;-68
2022/01/31 00:22:46;;;;;;;19.17;4.83;;;;;;;14.47;45.38;101395.53;5085515;28;20064;-68
2022/01/31 00:25:12;;;;;;;12.43;4.33;;;;;;;14.92;44.26;101391.22;5056683;28;20029;-68
2022/01/31 00:27:37;;;;;;;19.53;5.10;;;;;;;14.58;44.80;101380.44;5056576;28;20040;-68
2022/01/31 00:30:05;;;;;;;11.17;4.33;;;;;;;14.04;45.51;101368.16;5054424;28;20469;-69
2022/01/31 00:32:30;;;;;;;15.43;4.60;;;;;;;13.97;47.05;101371.78;5047694;28;20782;-69
2022/01/31 00:34:59;;;;;;;20.70;5.83;;;;;;;14.55;45.66;101351.56;5058639;28;20025;-68
2022/01/31 00:37:25;;;;;;;15.70;5.50;;;;;;;13.01;48.54;101337.19;5067036;28;20032;-68
2022/01/31 00:39:51;;;;;;;17.73;6.00;;;;;;;14.04;46.57;101329.63;5064837;28;20501;-68
2022/01/31 00:42:16;;;;;;;16.57;6.87;;;;;;;13.65;46.96;101321.47;5066813;28;20045;-69
2022/01/31 00:44:51;;;;;;;22.07;6.63;;;;;;;13.86;47.97;101307.16;5059338;28;20028;-68
2022/01/31 00:47:18;;;;;;;15.87;5.80;;;;;;;13.33;47.76;101296.53;5064371;28;20025;-69
2022/01/31 00:49:52;;;;;;;15.97;6.00;;;;;;;14.53;45.67;101285.78;5049556;28;20021;-69
2022/01/31 00:52:18;;;;;;;21.73;6.43;;;;;;;14.73;45.72;101280.19;5063635;28;20032;-68
2022/01/31 00:54:45;;;;;;;9.67;5.33;;;;;;;13.40;48.58;101271.09;5055169;28;20488;-68
2022/01/31 00:57:10;;;;;;;14.60;5.90;;;;;;;14.86;44.82;101269.41;5052811;28;20033;-69
2022/01/31 00:59:36;;;;;;;18.87;4.97;;;;;;;14.22;45.96;101249.56;5058331;28;20116;-68
2022/01/31 01:02:01;;;;;;;30.10;7.87;;;;;;;14.53;46.17;101245.50;5047647;28;20025;-68
2022/01/31 01:04:26;;;;;;;13.17;5.70;;;;;;;13.82;48.14;101241.53;5057939;28;20527;-68
2022/01/31 01:06:52;;;;;;;23.83;6.03;;;;;;;13.35;48.44;101231.78;5046997;28;20073;-68
2022/01/31 01:09:17;;;;;;;12.87;5.00;;;;;;;14.36;46.30;101216.91;5051654;28;20060;-68
2022/01/31 01:11:42;;;;;;;9.57;5.00;;;;;;;13.81;48.12;101197.78;5047673;28;20037;-68
2022/01/31 01:14:08;;;;;;;12.63;5.03;;;;;;;13.42;49.03;101194.91;5063936;28;20017;-68
2022/01/31 01:16:34;;;;;;;14.87;7.37;;;;;;;14.35;47.38;101179.19;5066947;28;20024;-68
2022/01/31 01:19:00;;;;;;;11.97;5.40;;;;;;;13.72;48.69;101178.66;5067809;28;20093;-68
2022/01/31 01:21:25;;;;;;;18.17;6.67;;;;;;;13.67;48.99;101167.34;5049604;28;20041;-68
2022/01/31 01:23:50;;;;;;;13.27;6.33;;;;;;;14.40;47.36;101151.06;5050299;28;20041;-68
2022/01/31 01:26:16;;;;;;;13.07;5.33;;;;;;;14.08;48.24;101149.94;5063015;28;20032;-67
2022/01/31 01:28:44;;;;;;;6.50;4.50;;;;;;;13.67;49.90;101154.22;5066200;28;20027;-67
2022/01/31 01:31:10;;;;;;;8.33;4.10;;;;;;;14.22;48.72;101151.44;5067630;28;20021;-68
2022/01/31 01:33:39;;;;;;;11.10;4.37;;;;;;;14.92;46.78;101132.44;5059965;28;20035;-68
2022/01/31 01:36:06;;;;;;;9.07;4.50;;;;;;;15.50;45.74;101129.28;5049049;28;20036;-67
2022/01/31 01:38:31;;;;;;;11.30;4.47;;;;;;;14.57;48.24;101136.69;5065535;28;20029;-68
2022/01/31 01:40:59;;;;;;;12.50;5.10;;;;;;;13.96;49.58;101133.53;5059669;28;20031;-68
2022/01/31 01:43:25;;;;;;;12.10;5.07;;;;;;;15.43;46.47;101116.25;5054476;28;20031;-68
2022/01/31 01:45:52;;;;;;;8.20;3.07;;;;;;;14.25;49.96;101119.81;5060801;28;20029;-68
2022/01/31 01:48:18;;;;;;;9.50;3.13;;;;;;;13.89;51.06;101122.31;5066373;28;20056;-68
2022/01/31 01:50:44;;;;;;;8.00;3.70;;;;;;;14.50;50.86;101114.91;5055743;28;20060;-68
2022/01/31 01:53:12;;;;;;;20.03;3.90;;;;;;;15.16;48.66;101093.25;5066654;28;20024;-67
2022/01/31 01:55:38;;;;;;;16.60;4.20;;;;;;;15.80;47.19;101096.00;5058850;28;20592;-68
2022/01/31 01:58:05;;;;;;;15.93;2.93;;;;;;;14.76;50.01;101085.41;5067365;28;20037;-68
2022/01/31 02:00:49;;;;;;;17.13;2.97;;;;;;;14.94;47.99;101077.97;5066925;28;20372;-68
2022/01/31 02:03:14;;;;;;;21.83;3.63;;;;;;;15.13;48.84;101077.53;5065433;28;20078;-68
2022/01/31 02:05:40;;;;;;;18.20;3.20;;;;;;;14.52;50.74;101081.56;5054120;28;20389;-68
2022/01/31 02:08:06;;;;;;;14.63;4.13;;;;;;;15.50;48.31;101060.78;5087648;28;20036;-68
2022/01/31 02:10:31;;;;;;;12.93;3.30;;;;;;;14.30;50.73;101070.66;5069539;28;20028;-67
2022/01/31 02:13:03;;;;;;;13.70;2.67;;;;;;;14.58;50.70;101054.25;5070061;28;20028;-67
2022/01/31 02:15:29;;;;;;;12.10;2.83;;;;;;;15.41;48.22;101051.34;5054900;28;20024;-68
2022/01/31 02:17:54;;;;;;;13.20;3.30;;;;;;;16.13;45.59;101034.41;5050150;28;20028;-68
2022/01/31 02:20:19;;;;;;;14.27;3.40;;;;;;;15.24;46.95;101046.53;5065621;28;20029;-68
2022/01/31 02:22:46;;;;;;;23.67;3.87;;;;;;;14.78;49.02;101039.78;5070802;28;20104;-68
2022/01/31 02:25:12;;;;;;;11.97;2.77;;;;;;;14.73;49.94;101048.66;5067612;28;20106;-68
2022/01/31 02:27:38;;;;;;;14.00;2.63;;;;;;;16.04;45.14;101041.69;5056096;28;20070;-68
2022/01/31 02:30:10;;;;;;;17.53;3.30;;;;;;;15.26;46.10;101031.53;5066259;28;20028;-68
2022/01/31 02:32:35;;;;;;;14.53;2.17;;;;;;;14.75;48.11;101036.34;5057027;28;20033;-68
2022/01/31 02:35:01;;;;;;;10.50;2.37;;;;;;;15.37;46.46;101025.97;5062839;28;20399;-68
2022/01/31 02:37:27;;;;;;;14.30;2.83;;;;;;;15.95;44.84;101020.91;5050844;28;20036;-68
2022/01/31 02:39:52;;;;;;;13.13;2.90;;;;;;;14.85;47.00;101025.56;5069440;28;20036;-68
2022/01/31 02:42:18;;;;;;;12.87;2.87;;;;;;;15.97;44.17;101013.78;5051644;28;20041;-67
2022/01/31 02:44:45;;;;;;;14.00;2.70;;;;;;;15.92;43.75;101010.41;5059944;28;20032;-68
2022/01/31 02:47:16;;;;;;;8.40;2.63;;;;;;;16.19;44.04;101000.81;5056732;28;20025;-68
2022/01/31 02:50:05;;;;;;;10.30;2.37;;;;;;;15.94;43.84;100998.06;5054394;28;20086;-68
2022/01/31 02:52:33;;;;;;;16.27;4.03;;;;;;;16.06;43.18;100991.56;5051849;28;20037;-68
2022/01/31 02:54:59;;;;;;;8.67;1.90;;;;;;;15.25;44.27;100987.69;5076885;28;20495;-68
2022/01/31 02:57:24;;;;;;;9.13;3.07;;;;;;;15.94;42.76;101003.34;5058245;28;20123;-68
2022/01/31 02:59:50;;;;;;;14.90;4.47;;;;;;;15.60;43.37;100996.38;5060747;28;20562;-68
2022/01/31 03:02:16;;;;;;;16.20;3.43;;;;;;;14.11;46.45;101008.84;5067979;28;20392;-68
2022/01/31 03:04:42;;;;;;;13.37;3.17;;;;;;;14.26;44.98;101013.78;5051013;28;20040;-70
2022/01/31 03:07:07;;;;;;;7.27;1.80;;;;;;;15.56;42.46;101018.44;5066288;28;20039;-68
2022/01/31 03:09:33;;;;;;;18.27;3.07;;;;;;;15.16;43.00;101003.72;5071152;28;20025;-68
2022/01/31 03:11:58;;;;;;;15.30;2.70;;;;;;;15.38;43.45;100999.59;5068346;28;20021;-67
2022/01/31 03:14:24;;;;;;;14.33;4.20;;;;;;;15.67;42.39;101005.81;5058550;28;20041;-68
2022/01/31 03:16:49;;;;;;;17.70;3.90;;;;;;;15.37;42.37;100987.38;5064218;28;20345;-68
2022/01/31 03:19:16;;;;;;;4.77;1.87;;;;;;;14.71;43.42;100997.84;5064701;28;20037;-68
2022/01/31 03:21:42;;;;;;;6.47;2.50;;;;;;;14.36;43.63;100994.25;5049420;28;20558;-68
2022/01/31 03:24:10;;;;;;;9.13;2.40;;;;;;;14.84;43.61;100987.00;5050202;28;20025;-68
2022/01/31 03:26:36;;;;;;;9.67;1.53;;;;;;;14.79;43.60;100989.75;5049623;28;20477;-68
2022/01/31 03:29:03;;;;;;;11.03;2.17;;;;;;;14.68;43.36;100973.38;5082339;28;20434;-68
2022/01/31 03:31:28;;;;;;;13.00;2.70;;;;;;;14.79;43.19;100973.09;5069616;28;20506;-68
2022/01/31 03:33:54;;;;;;;23.77;3.53;;;;;;;14.24;44.43;100970.88;5055183;28;20024;-68
2022/01/31 03:36:20;;;;;;;14.83;2.27;;;;;;;13.91;44.57;100970.72;5058265;28;20040;-68
2022/01/31 03:38:46;;;;;;;9.57;2.07;;;;;;;14.14;43.45;100977.25;5065945;28;20017;-68
2022/01/31 03:41:15;;;;;;;9.53;1.93;;;;;;;14.47;42.99;100970.31;5059164;28;20028;-68
2022/01/31 03:43:41;;;;;;;15.13;2.10;;;;;;;14.13;43.48;100963.22;5051670;28;20109;-68
2022/01/31 03:46:07;;;;;;;9.10;2.93;;;;;;;14.98;42.07;100971.72;5056259;28;20032;-68
2022/01/31 03:48:33;;;;;;;11.20;2.90;;;;;;;15.71;40.46;100959.19;5049391;28;20033;-68
2022/01/31 03:51:00;;;;;;;17.43;3.07;;;;;;;15.37;41.08;100965.41;5056752;28;20086;-68
2022/01/31 03:53:26;;;;;;;8.10;2.20;;;;;;;14.89;42.00;100971.94;5053725;28;20104;-68
2022/01/31 03:55:52;;;;;;;12.50;1.90;;;;;;;15.22;41.11;100969.31;5060845;28;20574;-68
2022/01/31 03:58:18;;;;;;;8.87;2.30;;;;;;;14.91;41.11;100951.72;5053129;28;20059;-68
2022/01/31 04:00:44;;;;;;;12.57;1.73;;;;;;;14.57;41.36;100957.81;5052839;28;20047;-68
2022/01/31 04:03:10;;;;;;;9.47;2.03;;;;;;;14.58;41.00;100949.88;5064432;28;20364;-68
2022/01/31 04:05:37;;;;;;;17.90;3.40;;;;;;;14.42;42.02;100932.75;5051905;28;20031;-68
2022/01/31 04:08:03;;;;;;;8.97;1.30;;;;;;;14.71;40.88;100931.19;5054268;28;20029;-68
2022/01/31 04:10:29;;;;;;;7.43;2.13;;;;;;;14.04;41.67;100959.03;5047823;28;20025;-68
2022/01/31 04:12:55;;;;;;;17.33;2.40;;;;;;;14.91;39.74;100938.56;5055859;28;20078;-68
2022/01/31 04:15:21;;;;;;;5.97;1.70;;;;;;;15.26;39.19;100947.28;5048266;28;20128;-69
2022/01/31 04:17:46;;;;;;;14.80;2.13;;;;;;;14.37;40.85;100935.50;5057503;28;20037;-68
2022/01/31 04:20:12;;;;;;;7.90;1.40;;;;;;;14.19;41.24;100928.91;5048130;28;20029;-68
2022/01/31 04:22:46;;;;;;;10.23;1.73;;;;;;;15.13;39.38;100943.28;5065796;28;20441;-68
2022/01/31 04:25:27;;;;;;;12.60;1.57;;;;;;;14.62;40.00;100937.53;5055454;28;20036;-68
2022/01/31 04:28:01;;;;;;;13.40;2.43;;;;;;;15.09;39.77;100924.06;5071639;28;20033;-69
2022/01/31 04:30:27;;;;;;;16.33;2.80;;;;;;;15.36;39.05;100914.53;5049669;28;20024;-69
2022/01/31 04:32:53;;;;;;;15.73;4.47;;;;;;;15.34;38.53;100923.38;5083165;28;20033;-69
2022/01/31 04:35:18;;;;;;;17.30;2.60;;;;;;;14.40;39.75;100927.53;5067793;28;20498;-69
2022/01/31 04:37:43;;;;;;;16.70;2.67;;;;;;;15.17;38.93;100921.22;5065137;28;20031;-69
2022/01/31 04:40:13;;;;;;;15.40;2.70;;;;;;;15.19;38.66;100922.03;5057817;28;20496;-69
2022/01/31 04:42:42;;;;;;;7.47;3.00;;;;;;;15.17;38.56;100916.81;5048359;28;20041;-69
2022/01/31 04:45:07;;;;;;;8.80;1.33;;;;;;;15.26;38.15;100916.56;5050604;28;20024;-69
2022/01/31 04:47:33;;;;;;;11.43;2.00;;;;;;;15.26;38.17;100915.69;5062904;28;20444;-69
2022/01/31 04:49:58;;;;;;;9.13;2.13;;;;;;;15.41;37.79;100920.53;5065420;28;20518;-69
2022/01/31 04:52:23;;;;;;;3.70;1.33;;;;;;;14.42;40.44;100923.13;5067273;28;20028;-69
2022/01/31 04:54:49;;;;;;;8.93;1.30;;;;;;;15.14;39.52;100918.66;5067645;28;20040;-69
2022/01/31 04:57:16;;;;;;;9.23;1.30;;;;;;;14.10;41.08;100920.38;5056927;28;20037;-68
2022/01/31 04:59:43;;;;;;;6.27;1.37;;;;;;;13.86;42.23;100906.88;5058998;28;20103;-70
2022/01/31 05:02:08;;;;;;;7.40;1.50;;;;;;;14.11;42.97;100929.97;5068039;28;20021;-68
2022/01/31 05:04:34;;;;;;;5.20;1.20;;;;;;;14.71;41.81;100929.44;5063670;28;20442;-68
2022/01/31 05:06:59;;;;;;;8.53;2.13;;;;;;;13.66;43.94;100952.84;5057595;28;20036;-68
2022/01/31 05:09:25;;;;;;;3.47;1.43;;;;;;;13.29;45.98;100953.56;5067787;28;20399;-68
2022/01/31 05:11:50;;;;;;;7.57;1.07;;;;;;;11.92;50.59;100940.91;5068735;28;20036;-68
2022/01/31 05:14:17;;;;;;;6.10;1.20;;;;;;;12.17;52.10;100943.22;5067109;28;20087;-68
2022/01/31 05:16:43;;;;;;;7.57;2.50;;;;;;;14.23;45.38;100921.81;5069553;28;20478;-70
2022/01/31 05:19:08;;;;;;;7.73;1.33;;;;;;;13.99;46.62;100918.84;5067506;28;20086;-68
2022/01/31 05:21:34;;;;;;;12.90;2.73;;;;;;;13.44;45.76;100920.06;5047568;28;20052;-68
2022/01/31 05:23:59;;;;;;;7.23;1.63;;;;;;;13.12;46.66;100934.63;5049510;28;20174;-67
2022/01/31 05:26:25;;;;;;;7.90;1.53;;;;;;;13.81;44.69;100924.53;5047042;28;20090;-67
2022/01/31 05:28:51;;;;;;;19.47;2.23;;;;;;;13.96;43.46;100918.06;5056938;28;20051;-68
2022/01/31 05:31:16;;;;;;;12.50;2.13;;;;;;;13.33;44.91;100918.47;5051231;28;20021;-67
2022/01/31 05:33:42;;;;;;;7.03;1.33;;;;;;;13.88;43.33;100913.84;5048535;28;20040;-67
2022/01/31 05:36:07;;;;;;;8.27;1.37;;;;;;;13.54;44.58;100903.22;5065065;28;20013;-67
2022/01/31 05:38:38;;;;;;;5.97;1.73;;;;;;;14.21;42.54;100889.44;5067862;28;20100;-68
2022/01/31 05:41:07;;;;;;;16.07;2.43;;;;;;;12.84;44.68;100919.41;5059046;28;20033;-67
2022/01/31 05:43:33;;;;;;;7.47;2.20;;;;;;;12.28;45.24;100920.34;5052711;28;20048;-67
2022/01/31 05:45:58;;;;;;;21.63;6.67;;;;;;;13.73;42.82;100886.16;5065562;28;20380;-67
2022/01/31 05:48:24;;;;;;;9.40;2.70;;;;;;;13.46;43.23;100899.88;5067298;28;20336;-68
2022/01/31 05:50:49;;;;;;;13.83;2.53;;;;;;;12.73;44.34;100898.63;5052939;28;20037;-68
2022/01/31 05:53:14;;;;;;;19.73;2.43;;;;;;;13.38;43.38;100895.66;5052325;28;20036;-68
2022/01/31 05:55:40;;;;;;;21.37;1.87;;;;;;;14.78;41.74;100916.09;5056939;28;20028;-67
2022/01/31 05:58:06;;;;;;;17.40;2.70;;;;;;;13.48;43.89;100904.22;5072357;28;20086;-67
2022/01/31 06:00:32;;;;;;;14.93;2.23;;;;;;;15.29;40.50;100901.56;5046856;28;20024;-68
2022/01/31 06:02:58;;;;;;;14.50;1.20;;;;;;;13.95;43.22;100900.59;5070460;28;20017;-67
2022/01/31 06:05:25;;;;;;;21.17;3.63;;;;;;;13.13;44.23;100904.88;5069627;28;20139;-67
2022/01/31 06:07:51;;;;;;;10.40;2.70;;;;;;;14.04;42.58;100884.56;5071755;28;20032;-70
2022/01/31 06:10:17;;;;;;;15.43;1.60;;;;;;;13.70;43.11;100907.22;5059349;28;20387;-67
2022/01/31 06:12:42;;;;;;;14.07;3.00;;;;;;;13.98;42.30;100890.84;5072235;28;20051;-67
2022/01/31 06:15:08;;;;;;;22.67;2.90;;;;;;;12.52;44.22;100910.34;5055860;28;20032;-67
2022/01/31 06:17:34;;;;;;;22.90;2.30;;;;;;;12.28;43.95;100904.63;5070883;28;20028;-67
2022/01/31 06:19:59;;;;;;;10.10;1.70;;;;;;;13.28;44.28;100899.31;5077948;28;20064;-68
2022/01/31 06:22:25;;;;;;;12.33;2.23;;;;;;;12.22;43.96;100899.47;5049278;28;20049;-67
2022/01/31 06:24:51;;;;;;;14.23;1.97;;;;;;;12.90;44.71;100891.31;5064215;28;20029;-67
2022/01/31 06:27:16;;;;;;;7.97;3.23;;;;;;;10.91;48.51;100899.41;5067801;28;20020;-67
2022/01/31 06:29:42;;;;;;;10.00;2.53;;;;;;;11.27;47.15;100902.47;5059818;28;20029;-68
2022/01/31 06:32:08;;;;;;;13.03;2.47;;;;;;;11.41;47.39;100893.59;5070879;28;20074;-68
2022/01/31 06:34:34;;;;;;;8.93;2.90;;;;;;;12.51;44.83;100909.47;5058992;28;20048;-68
2022/01/31 06:37:02;;;;;;;14.60;2.70;;;;;;;11.88;45.61;100915.66;5071237;28;20063;-67
2022/01/31 06:39:28;;;;;;;37.83;2.60;;;;;;;12.09;45.66;100892.69;5061452;28;20028;-67
2022/01/31 06:41:54;;;;;;;14.67;2.30;;;;;;;13.34;42.54;100898.31;5079762;28;20022;-68
2022/01/31 06:44:19;;;;;;;21.63;3.97;;;;;;;13.84;41.35;100913.94;5063356;28;20032;-67
2022/01/31 06:46:45;;;;;;;12.23;2.23;;;;;;;14.21;41.56;100949.91;5057968;28;20091;-68
2022/01/31 06:49:10;;;;;;;11.90;2.00;;;;;;;13.89;44.89;100930.50;5056063;28;20033;-68
2022/01/31 06:51:36;;;;;;;12.67;3.60;;;;;;;14.59;42.10;100933.19;5065072;28;20036;-68
2022/01/31 06:54:01;;;;;;;15.00;1.93;;;;;;;14.45;42.95;100934.44;5064342;28;20036;-67
2022/01/31 06:56:34;;;;;;;14.00;3.90;;;;;;;14.61;43.43;100935.78;5069996;28;20016;-68
2022/01/31 06:59:02;;;;;;;15.35;2.50;;;;;;;13.66;45.29;100952.00;5067718;28;20070;-67
2022/01/31 07:01:28;;;;;;;16.00;4.17;;;;;;;13.26;46.18;100947.50;5059135;28;20037;-68
2022/01/31 07:03:54;;;;;;;10.30;3.00;;;;;;;13.74;45.71;100931.69;5049819;28;20075;-67
2022/01/31 07:06:24;;;;;;;13.27;3.07;;;;;;;13.32;45.87;100927.25;5059975;28;20120;-67
2022/01/31 07:08:50;;;;;;;7.97;2.23;;;;;;;12.93;46.44;100942.88;5046787;28;20017;-67
2022/01/31 07:11:21;;;;;;;9.13;1.73;;;;;;;14.05;43.56;100929.25;5063059;28;20377;-67
2022/01/31 07:13:49;;;;;;;10.00;2.47;;;;;;;14.15;43.89;100923.75;5063057;28;20051;-67
2022/01/31 07:16:14;;;;;;;16.30;2.60;;;;;;;13.53;44.60;100938.22;5062967;28;20074;-68
2022/01/31 07:18:41;;;;;;;16.07;2.80;;;;;;;13.82;44.24;100952.50;5084694;28;20033;-66
2022/01/31 07:21:11;;;;;;;12.93;2.53;;;;;;;14.06;44.23;100951.97;5068883;28;20048;-67
2022/01/31 07:24:05;;;;;;;19.37;3.70;;;;;;;13.35;44.70;100937.72;5035189;28;20032;-67
2022/01/31 07:26:30;;;;;;;8.93;2.30;;;;;;;13.46;45.45;100944.50;5052694;28;20024;-69
2022/01/31 07:28:56;;;;;;;16.03;1.93;;;;;;;13.54;44.53;100934.72;5069493;28;20097;-67
2022/01/31 07:31:21;;;;;;;15.97;3.53;;;;;;;13.94;44.02;100919.88;5067396;28;20028;-69
2022/01/31 07:33:47;;;;;;;30.63;2.67;;;;;;;14.41;41.73;100936.28;5050318;28;20020;-67
2022/01/31 07:36:12;;;;;;;21.13;3.00;;;;;;;14.65;42.09;100919.06;5050955;28;20119;-67
2022/01/31 07:38:38;;;;;;;17.33;3.10;;;;;;;13.91;44.14;100962.84;5070637;28;20033;-69
2022/01/31 07:41:04;;;;;;;25.33;2.60;;;;;;;13.55;44.58;100960.09;5069106;28;20356;-67
2022/01/31 07:43:31;;;;;;;17.83;3.50;;;;;;;13.44;46.74;100946.31;5051049;28;20024;-69
2022/01/31 07:45:57;;;;;;;14.37;2.00;;;;;;;13.42;46.73;100942.84;5056928;28;20021;-70
2022/01/31 07:48:25;;;;;;;14.27;3.90;;;;;;;13.23;46.53;100987.81;5050985;28;20024;-67
2022/01/31 07:50:51;;;;;;;15.23;2.20;;;;;;;14.53;43.71;100940.38;5050759;28;20037;-67
2022/01/31 07:53:16;;;;;;;18.33;4.07;;;;;;;13.78;45.41;100969.25;5050298;28;20449;-67
2022/01/31 07:55:42;;;;;;;22.87;1.93;;;;;;;13.56;44.28;100951.31;5050169;28;20061;-66
2022/01/31 07:58:07;;;;;;;12.40;1.90;;;;;;;15.06;42.27;100967.13;5048746;28;20037;-66
2022/01/31 08:00:32;;;;;;;14.60;2.13;;;;;;;14.12;43.21;100958.00;5067809;28;20020;-66
2022/01/31 08:02:58;;;;;;;20.90;2.77;;;;;;;14.24;43.65;100957.72;5069306;28;20096;-66
2022/01/31 08:05:24;;;;;;;20.57;2.87;;;;;;;13.11;45.28;100986.28;5055915;28;20036;-66
2022/01/31 08:07:49;;;;;;;13.03;2.93;;;;;;;13.67;43.60;100980.84;5048651;28;20033;-68
2022/01/31 08:10:16;;;;;;;21.10;3.53;;;;;;;13.19;43.68;100980.91;5065736;28;20437;-67
2022/01/31 08:12:42;;;;;;;28.73;5.27;;;;;;;13.53;44.11;100941.75;5060352;28;20025;-68
2022/01/31 08:15:14;;;;;;;14.47;3.07;;;;;;;13.30;44.18;100949.16;5057261;28;20021;-68
2022/01/31 08:17:39;;;;;;;17.47;3.90;;;;;;;13.33;43.72;100960.47;5049669;28;20021;-67
2022/01/31 08:20:05;;;;;;;18.53;2.73;;;;;;;13.99;43.68;100963.53;5036208;28;20088;-68
2022/01/31 08:22:31;;;;;;;18.93;5.03;;;;;;;13.59;44.17;100998.53;5059614;28;20075;-66
2022/01/31 08:24:56;;;;;;;16.80;3.00;;;;;;;14.42;43.19;100996.75;5068287;28;20472;-66
2022/01/31 08:27:22;;;;;;;17.60;3.97;;;;;;;13.84;44.46;101006.75;5048189;28;20055;-66
2022/01/31 08:29:48;;;;;;;20.27;3.07;;;;;;;13.44;45.19;100999.69;5046501;28;20036;-65
2022/01/31 08:32:25;;;;;;;20.50;2.73;;;;;;;13.39;45.60;101025.16;5060327;28;20028;-68
2022/01/31 08:37:34;;;;;;;16.73;4.23;;;;;;;13.63;43.72;101000.19;5063255;28;20039;-68
2022/01/31 08:40:00;;;;;;;19.60;2.57;;;;;;;13.76;44.71;101010.47;5058569;28;20664;-68
2022/01/31 08:42:28;;;;;;;13.47;2.97;;;;;;;14.17;43.68;101033.22;5057487;28;20113;-67
2022/01/31 08:44:53;;;;;;;15.93;3.90;;;;;;;13.94;43.44;101019.72;5068127;28;20467;-67
2022/01/31 08:47:18;;;;;;;22.30;3.30;;;;;;;13.54;44.00;101037.13;5053151;28;20032;-67
2022/01/31 08:49:44;;;;;;;20.60;2.37;;;;;;;14.81;41.91;101013.38;5049698;28;20388;-68
2022/01/31 08:52:10;;;;;;;19.97;3.27;;;;;;;14.82;41.96;101015.97;5044828;28;20448;-67
2022/01/31 08:54:35;;;;;;;29.70;3.40;;;;;;;13.43;44.43;101036.47;5058061;28;20032;-67
2022/01/31 08:57:00;;;;;;;18.87;3.43;;;;;;;13.25;44.21;101041.13;5035745;28;20350;-68
2022/01/31 08:59:27;;;;;;;28.20;4.33;;;;;;;13.33;44.89;101033.13;5051397;28;20027;-67
2022/01/31 09:02:03;;;;;;;15.07;2.30;;;;;;;14.49;42.22;101002.69;5046133;28;20476;-67
2022/01/31 09:04:47;;;;;;;15.83;3.77;;;;;;;15.08;41.91;101017.09;5054872;28;20028;-68
2022/01/31 09:07:19;;;;;;;22.57;2.27;;;;;;;14.20;42.98;101021.78;5047872;28;20473;-67
2022/01/31 09:09:47;;;;;;;30.07;4.03;;;;;;;13.13;45.08;101033.47;5046888;28;20119;-67
2022/01/31 09:12:16;;;;;;;20.37;3.43;;;;;;;13.56;44.96;101051.13;5060360;28;20475;-66
2022/01/31 09:14:41;;;;;;;22.37;3.53;;;;;;;14.11;44.57;101050.88;5058783;28;20495;-67
2022/01/31 09:17:07;;;;;;;15.90;2.83;;;;;;;13.18;45.77;101034.28;5034225;28;20024;-67
2022/01/31 09:19:32;;;;;;;19.93;2.80;;;;;;;14.00;44.39;101051.09;5072359;28;20920;-67
2022/01/31 09:21:59;;;;;;;20.27;4.27;;;;;;;13.17;44.82;101095.53;5051804;28;20045;-67
2022/01/31 09:24:25;;;;;;;24.67;3.60;;;;;;;13.26;43.96;101068.25;5051369;28;20029;-67
2022/01/31 09:26:50;;;;;;;40.50;3.40;;;;;;;14.04;43.30;101071.16;5051742;28;20553;-66
2022/01/31 09:29:17;;;;;;;19.93;2.77;;;;;;;14.29;42.28;101084.69;5051070;28;20052;-67
2022/01/31 09:31:43;;;;;;;28.50;4.43;;;;;;;12.78;43.78;101061.19;5080226;28;20488;-67
2022/01/31 09:34:08;;;;;;;17.03;4.20;;;;;;;13.94;41.04;101078.38;5051656;28;20021;-67
2022/01/31 09:36:34;;;;;;;30.17;4.80;;;;;;;12.90;42.78;101080.19;5064713;28;20036;-65
2022/01/31 09:38:59;;;;;;;28.83;4.20;;;;;;;13.39;42.29;101091.69;5050326;28;20024;-65
2022/01/31 09:41:27;;;;;;;19.10;3.60;;;;;;;14.28;41.07;101084.72;5053335;28;20029;-64
2022/01/31 09:44:08;;;;;;;17.37;4.10;;;;;;;13.77;42.05;101080.50;5052318;28;20549;-66
2022/01/31 09:47:06;;;;;;;26.50;5.20;;;;;;;14.21;41.03;101084.84;5051545;28;20055;-65
2022/01/31 09:49:22;;;;;;;16.07;3.17;;;;;;;14.15;40.91;101098.13;5053100;28;20029;-65
2022/01/31 09:51:48;;;;;;;26.20;3.90;;;;;;;13.74;40.42;101103.28;5069330;28;20085;-65
2022/01/31 09:54:14;;;;;;;22.07;4.27;;;;;;;13.31;40.86;101092.66;5068721;28;20040;-65
2022/01/31 09:56:42;;;;;;;30.97;4.40;;;;;;;13.89;40.01;101096.03;5054615;28;20040;-64
2022/01/31 09:59:10;;;;;;;13.87;2.97;;;;;;;13.72;40.47;101107.72;5051354;28;20388;-66
2022/01/31 10:01:41;;;;;;;17.87;3.50;;;;;;;13.71;39.60;101140.13;5050216;28;20048;-65
2022/01/31 10:04:18;;;;;;;22.57;3.50;;;;;;;14.22;39.01;101130.41;5048854;28;20104;-66
2022/01/31 10:06:46;;;;;;;21.10;4.13;;;;;;;13.22;40.93;101133.06;5067222;28;20029;-65
2022/01/31 10:09:21;;;;;;;22.77;3.93;;;;;;;13.67;40.58;101117.44;5053159;28;20395;-65
2022/01/31 10:11:51;;;;;;;28.53;5.53;;;;;;;13.06;42.69;101145.56;5074021;28;20024;-66
2022/01/31 10:17:27;;;;;;;26.50;3.33;;;;;;;13.60;41.54;101176.25;5057463;28;20114;-66
2022/01/31 10:19:55;;;;;;;21.33;2.83;;;;;;;13.73;40.89;101169.00;5039047;28;20104;-66
2022/01/31 10:22:25;;;;;;;24.67;5.20;;;;;;;12.67;42.51;101190.69;5042896;28;20060;-66
2022/01/31 10:24:53;;;;;;;23.67;4.70;;;;;;;13.19;42.13;101177.75;5047431;28;20024;-65
2022/01/31 10:27:22;;;;;;;34.17;3.27;;;;;;;14.65;39.66;101187.41;5053346;28;20464;-66
2022/01/31 10:29:50;;;;;;;24.70;3.07;;;;;;;13.85;40.15;101183.69;5062207;28;20016;-67
2022/01/31 10:32:32;;;;;;;23.10;5.23;;;;;;;13.81;40.27;101218.78;5053207;28;20024;-66
2022/01/31 10:35:01;;;;;;;37.42;5.70;;;;;;;13.56;41.54;101178.03;5022367;28;20064;-65
2022/01/31 10:37:29;;;;;;;29.13;5.53;;;;;;;12.95;42.45;101199.94;5053329;28;20037;-65
2022/01/31 10:45:46;;;;;;;22.63;3.93;;;;;;;14.32;41.17;101226.59;5052669;28;20102;-66
2022/01/31 10:53:38;;;;;;;28.35;6.15;;;;;;;13.05;44.16;101226.06;5048137;28;20040;-66
2022/01/31 10:56:03;;;;;;;25.60;3.97;;;;;;;14.14;41.90;101196.28;5052213;28;20057;-65
2022/01/31 10:58:30;;;;;;;35.70;6.93;;;;;;;12.47;44.76;101225.03;5050075;28;20096;-65
2022/01/31 11:01:11;;;;;;;28.07;4.23;;;;;;;14.00;42.53;101222.81;5052751;28;20467;-65
2022/01/31 11:03:37;;;;;;;50.50;5.77;;;;;;;13.46;43.82;101207.94;5051550;28;20056;-65
2022/01/31 11:06:09;;;;;;;36.97;7.37;;;;;;;13.01;45.10;101244.47;5058948;28;20044;-66
2022/01/31 11:08:35;;;;;;;36.33;6.22;;;;;;;13.00;45.29;101246.22;5067548;28;20029;-66
2022/01/31 11:11:01;;;;;;;18.33;4.50;;;;;;;12.89;45.01;101235.03;5051734;28;20032;-65
2022/01/31 11:13:26;;;;;;;35.97;5.90;;;;;;;13.25;43.90;101238.00;5052954;28;20456;-65
2022/01/31 11:15:54;;;;;;;25.50;5.83;;;;;;;13.46;43.71;101228.09;5058129;28;20040;-64
2022/01/31 11:18:21;;;;;;;28.37;5.27;;;;;;;13.36;42.95;101223.00;5057587;28;20481;-64
2022/01/31 11:20:49;;;;;;;37.73;6.30;;;;;;;13.48;42.02;101252.59;5050512;28;20056;-65
2022/01/31 11:23:18;;;;;;;43.90;5.43;;;;;;;12.80;42.55;101249.09;5044725;28;20074;-65
2022/01/31 11:25:50;;;;;;;34.03;4.73;;;;;;;15.39;39.25;101255.97;5048377;28;20033;-65
2022/01/31 11:28:17;;;;;;;34.00;4.90;;;;;;;14.43;41.07;101256.19;5049112;28;20113;-65
2022/01/31 11:30:42;;;;;;;26.67;3.00;;;;;;;13.89;42.01;101301.00;5051555;28;20492;-65
2022/01/31 11:33:10;;;;;;;16.57;4.07;;;;;;;14.61;41.31;101275.13;5058035;28;20080;-65
2022/01/31 11:35:35;;;;;;;20.80;3.63;;;;;;;13.68;43.39;101308.31;5052728;28;20579;-65